Time;durP1;ratioP1;P1;durP2;ratioP2;P2;SDS_P1;SDS_P2;PMS_P1;PMS_P2;Temp;Humidity;BMP_temperature;BMP_pressure;BME280_temperature;BME280_humidity;BME280_pressure;Samples;Min_cycle;Max_cycle;Signal;HPM_P1;HPM_P2
2024/03/02 00:04:18;;;;;;;39;23.1;;;;;;;6.47;91.26;98098.333333333;;;;
2024/03/02 00:14:18;;;;;;;34;20;;;;;;;6.35;90.76;98101.666666667;;;;
2024/03/02 00:25:18;;;;;;;34;20;;;;;;;6.26;90.41;98106.666666667;;;;
2024/03/02 00:36:18;;;;;;;34;19.5;;;;;;;6.1;90.15;98103.333333333;;;;
2024/03/02 00:46:18;;;;;;;34;19.5;;;;;;;5.88;89.72;98096.666666667;;;;
2024/03/02 00:57:18;;;;;;;34;19.5;;;;;;;5.88;90.7;98091.666666667;;;;
2024/03/02 01:08:18;;;;;;;34.5;19.4;;;;;;;5.82;90.78;98081.666666667;;;;
2024/03/02 01:19:18;;;;;;;34.5;19.4;;;;;;;5.85;92.35;98070;;;;
2024/03/02 01:29:18;;;;;;;34.5;19.4;;;;;;;5.98;92.87;98063.333333333;;;;
2024/03/02 01:40:18;;;;;;;38.2;21.7;;;;;;;6.1;92.17;98075;;;;
2024/03/02 01:51:18;;;;;;;38.2;21.7;;;;;;;6.02;91.29;98055;;;;
2024/03/02 02:02:18;;;;;;;38.2;21.7;;;;;;;6.04;91.33;98051.666666667;;;;
2024/03/02 02:12:18;;;;;;;31.9;19;;;;;;;5.97;90.9;98055;;;;
2024/03/02 02:23:18;;;;;;;31.9;19;;;;;;;5.92;90.4;98048.333333333;;;;
2024/03/02 02:33:18;;;;;;;31.9;19;;;;;;;5.71;90.11;98050;;;;
2024/03/02 02:44:18;;;;;;;33.9;19.8;;;;;;;5.57;91.53;98051.666666667;;;;
2024/03/02 02:54:18;;;;;;;33.9;19.8;;;;;;;5.5;92.11;98041.666666667;;;;
2024/03/02 03:05:18;;;;;;;30.7;18.3;;;;;;;5.53;91.83;98045;;;;
2024/03/02 03:16:18;;;;;;;30.7;18.3;;;;;;;5.53;91.98;98041.666666667;;;;
2024/03/02 03:26:18;;;;;;;30.7;18.3;;;;;;;5.55;92.15;98043.333333333;;;;
2024/03/02 03:36:18;;;;;;;34.3;20.6;;;;;;;5.39;92.73;98033.333333333;;;;
2024/03/02 03:47:18;;;;;;;34.3;20.6;;;;;;;5.35;92.4;98021.666666667;;;;
2024/03/02 03:57:18;;;;;;;34.3;20.6;;;;;;;5.35;92.51;98025;;;;
2024/03/02 04:07:18;;;;;;;32.9;18.4;;;;;;;5.4;92.09;98025;;;;
2024/03/02 04:18:18;;;;;;;32.9;18.4;;;;;;;5.26;92.93;98031.666666667;;;;
2024/03/02 04:28:18;;;;;;;32.9;18.4;;;;;;;5.38;92.6;98035;;;;
2024/03/02 04:39:18;;;;;;;32.4;18.3;;;;;;;5.36;91.98;98038.333333333;;;;
2024/03/02 04:49:18;;;;;;;32.4;18.3;;;;;;;5.29;91.57;98040;;;;
2024/03/02 04:59:18;;;;;;;32.4;18.3;;;;;;;5.2;91.33;98035;;;;
2024/03/02 05:10:18;;;;;;;27.6;16;;;;;;;5.08;90.63;98046.666666667;;;;
2024/03/02 05:20:18;;;;;;;27.6;16;;;;;;;5.04;91.07;98060;;;;
2024/03/02 05:31:18;;;;;;;27.6;16;;;;;;;4.96;90.58;98085;;;;
2024/03/02 05:42:18;;;;;;;25.5;15.8;;;;;;;4.81;90.28;98080;;;;
2024/03/02 05:52:18;;;;;;;25.5;15.8;;;;;;;4.75;90.44;98073.333333333;;;;
2024/03/02 06:02:18;;;;;;;25.5;15.8;;;;;;;4.78;90.4;98080;;;;
2024/03/02 06:13:18;;;;;;;30.4;16.1;;;;;;;4.88;90.33;98100;;;;
2024/03/02 06:23:18;;;;;;;30.4;16.1;;;;;;;5.06;90.62;98101.666666667;;;;
2024/03/02 06:34:18;;;;;;;26.6;17.1;;;;;;;5.19;90.05;98110;;;;
2024/03/02 06:44:18;;;;;;;26.6;17.1;;;;;;;5.59;91.3;98101.666666667;;;;
2024/03/02 06:54:18;;;;;;;26.6;17.1;;;;;;;5.86;91.08;98096.666666667;;;;
2024/03/02 07:05:18;;;;;;;30.7;20.6;;;;;;;6.23;91.15;98111.666666667;;;;
2024/03/02 07:15:29;;;;;;;30.7;20.6;;;;;;;6.47;90.44;98101.666666667;;;;
2024/03/02 07:26:18;;;;;;;30.7;20.6;;;;;;;6.44;89.83;98110;;;;
2024/03/02 07:36:19;;;;;;;30.8;20.2;;;;;;;6.73;90.64;98130;;;;
2024/03/02 07:47:18;;;;;;;30.8;20.2;;;;;;;7.14;91.03;98130;;;;
2024/03/02 07:57:18;;;;;;;30.8;20.2;;;;;;;7.48;90.13;98125;;;;
2024/03/02 08:07:18;;;;;;;30.8;21.2;;;;;;;7.7;88.98;98131.666666667;;;;
2024/03/02 08:17:18;;;;;;;30.8;21.2;;;;;;;8.08;88.89;98133.333333333;;;;
2024/03/02 08:27:18;;;;;;;30.8;21.2;;;;;;;8.52;87.31;98128.333333333;;;;
2024/03/02 08:38:18;;;;;;;31.7;20;;;;;;;8.21;86.64;98140;;;;
2024/03/02 08:49:18;;;;;;;31.7;20;;;;;;;8.55;86.38;98146.666666667;;;;
2024/03/02 08:59:18;;;;;;;31.7;20;;;;;;;8.58;85.67;98163.333333333;;;;
2024/03/02 09:10:18;;;;;;;33.5;20.9;;;;;;;8.62;85.81;98166.666666667;;;;
2024/03/02 09:21:18;;;;;;;33.5;20.9;;;;;;;8.98;86.11;98176.666666667;;;;
2024/03/02 09:32:18;;;;;;;33.5;20.9;;;;;;;9.29;86;98180;;;;
2024/03/02 09:43:18;;;;;;;31;21.2;;;;;;;9.43;84.53;98183.333333333;;;;
2024/03/02 09:53:18;;;;;;;31;21.2;;;;;;;9.78;83.39;98186.666666667;;;;
2024/03/02 10:04:18;;;;;;;30.7;22;;;;;;;9.85;82.63;98188.333333333;;;;
2024/03/02 10:15:18;;;;;;;30.7;22;;;;;;;9.96;84.03;98195;;;;
2024/03/02 10:26:18;;;;;;;30.7;22;;;;;;;10.12;83.6;98191.666666667;;;;
2024/03/02 10:37:18;;;;;;;31.2;21.7;;;;;;;10.4;81.96;98181.666666667;;;;
2024/03/02 10:47:18;;;;;;;31.2;21.7;;;;;;;10.67;81.33;98180;;;;
2024/03/02 10:58:18;;;;;;;31.2;21.7;;;;;;;10.88;79.61;98170;;;;
2024/03/02 11:08:19;;;;;;;32.5;26.4;;;;;;;11.59;79.28;98166.666666667;;;;
2024/03/02 11:18:19;;;;;;;32.5;26.4;;;;;;;11.84;79.03;98163.333333333;;;;
2024/03/02 11:28:18;;;;;;;32.5;26.4;;;;;;;12.73;75.97;98150;;;;
2024/03/02 11:39:18;;;;;;;30.3;25.8;;;;;;;12.95;76.03;98151.666666667;;;;
2024/03/02 11:49:18;;;;;;;30.3;25.8;;;;;;;12.9;74.89;98148.333333333;;;;
2024/03/02 12:00:18;;;;;;;30.3;25.8;;;;;;;13.04;74.01;98145;;;;
2024/03/02 12:10:18;;;;;;;28;23.2;;;;;;;12.94;73.51;98143.333333333;;;;
2024/03/02 12:21:18;;;;;;;28;23.2;;;;;;;12.91;74.16;98153.333333333;;;;
2024/03/02 12:32:18;;;;;;;28;23.2;;;;;;;12.94;73.71;98146.666666667;;;;
2024/03/02 12:43:18;;;;;;;25.8;22;;;;;;;13.1;73.3;98143.333333333;;;;
2024/03/02 12:53:18;;;;;;;25.8;22;;;;;;;13.3;72.24;98131.666666667;;;;
2024/03/02 13:03:20;;;;;;;25.8;22;;;;;;;13.7;71.44;98133.333333333;;;;
2024/03/02 13:14:18;;;;;;;24.4;21.2;;;;;;;13.93;70.91;98131.666666667;;;;
2024/03/02 13:25:18;;;;;;;24.4;21.2;;;;;;;14.23;70.27;98121.666666667;;;;
2024/03/02 13:35:18;;;;;;;28;21.8;;;;;;;14.25;69.85;98118.333333333;;;;
2024/03/02 13:45:18;;;;;;;28;21.8;;;;;;;13.94;71.11;98116.666666667;;;;
2024/03/02 13:56:18;;;;;;;28;21.8;;;;;;;14.56;69.88;98115;;;;
2024/03/02 14:06:18;;;;;;;30.1;23.3;;;;;;;14.44;69.08;98115;;;;
2024/03/02 14:17:18;;;;;;;30.1;23.3;;;;;;;14.51;68.64;98111.666666667;;;;
2024/03/02 14:27:18;;;;;;;30.1;23.3;;;;;;;14.18;69.79;98121.666666667;;;;
2024/03/02 14:38:18;;;;;;;27.9;23;;;;;;;14.02;70.07;98118.333333333;;;;
2024/03/02 14:48:18;;;;;;;27.9;23;;;;;;;13.86;71.13;98116.666666667;;;;
2024/03/02 14:58:19;;;;;;;27.9;23;;;;;;;13.45;72.58;98113.333333333;;;;
2024/03/02 15:09:19;;;;;;;30.3;22.5;;;;;;;13.12;73.37;98108.333333333;;;;
2024/03/02 15:19:18;;;;;;;30.3;22.5;;;;;;;13.05;73.37;98101.666666667;;;;
2024/03/02 15:30:18;;;;;;;30.3;22.5;;;;;;;12.93;73.99;98103.333333333;;;;
2024/03/02 15:40:18;;;;;;;31.8;24.6;;;;;;;12.9;73.91;98096.666666667;;;;
2024/03/02 15:51:19;;;;;;;31.8;24.6;;;;;;;12.75;74.19;98096.666666667;;;;
2024/03/02 16:02:18;;;;;;;31.8;24.6;;;;;;;12.45;74.84;98086.666666667;;;;
2024/03/02 16:13:18;;;;;;;31.4;23.2;;;;;;;12.01;75.55;98091.666666667;;;;
2024/03/02 16:23:18;;;;;;;31.4;23.2;;;;;;;11.56;76.55;98081.666666667;;;;
2024/03/02 16:34:18;;;;;;;31.5;21.2;;;;;;;11.1;77.67;98096.666666667;;;;
2024/03/02 16:45:19;;;;;;;31.5;21.2;;;;;;;10.7;78.92;98103.333333333;;;;
2024/03/02 16:56:18;;;;;;;31.5;21.2;;;;;;;10.43;81.09;98103.333333333;;;;
2024/03/02 17:07:18;;;;;;;30;18.1;;;;;;;10.22;81.96;98110;;;;
2024/03/02 17:17:18;;;;;;;30;18.1;;;;;;;10.05;82.22;98118.333333333;;;;
2024/03/02 17:28:20;;;;;;;30;18.1;;;;;;;9.76;82.3;98111.666666667;;;;
2024/03/02 17:38:18;;;;;;;37.4;26.4;;;;;;;9.55;82.52;98115;;;;
2024/03/02 17:48:21;;;;;;;37.4;26.4;;;;;;;9.38;82.57;98111.666666667;;;;
2024/03/02 17:59:18;;;;;;;37.4;26.4;;;;;;;9.19;83.1;98108.333333333;;;;
2024/03/02 18:09:18;;;;;;;44.5;27.6;;;;;;;9.01;83.02;98111.666666667;;;;
2024/03/02 18:20:18;;;;;;;44.5;27.6;;;;;;;8.65;85.68;98103.333333333;;;;
2024/03/02 18:31:21;;;;;;;44.5;27.6;;;;;;;8.48;85.84;98098.333333333;;;;
2024/03/02 18:42:18;;;;;;;39.7;25;;;;;;;8.32;84.96;98096.666666667;;;;
2024/03/02 18:52:18;;;;;;;39.7;25;;;;;;;8.26;86.1;98098.333333333;;;;
2024/03/02 19:02:19;;;;;;;39.7;25;;;;;;;8.16;86.24;98098.333333333;;;;
2024/03/02 19:13:18;;;;;;;43;28.1;;;;;;;8.02;86.53;98096.666666667;;;;
2024/03/02 19:24:18;;;;;;;43;28.1;;;;;;;7.89;86.75;98105;;;;
2024/03/02 19:35:18;;;;;;;43.4;26.1;;;;;;;7.76;88.95;98108.333333333;;;;
2024/03/02 19:45:18;;;;;;;43.4;26.1;;;;;;;7.67;87.67;98095;;;;
2024/03/02 19:56:18;;;;;;;43.4;26.1;;;;;;;7.57;88.28;98090;;;;
2024/03/02 20:06:19;;;;;;;43.6;24.2;;;;;;;7.66;88.46;98076.666666667;;;;
2024/03/02 20:17:18;;;;;;;43.6;24.2;;;;;;;7.82;87.67;98076.666666667;;;;
2024/03/02 20:27:19;;;;;;;43.6;24.2;;;;;;;7.98;86.68;98081.666666667;;;;
2024/03/02 20:38:19;;;;;;;38.5;24.2;;;;;;;7.83;85.94;98088.333333333;;;;
2024/03/02 20:49:19;;;;;;;38.5;24.2;;;;;;;7.53;85.88;98090;;;;
2024/03/02 21:00:19;;;;;;;38.5;24.2;;;;;;;7.42;86.31;98100;;;;
2024/03/02 21:11:21;;;;;;;39.8;26;;;;;;;7.38;86.03;98098.333333333;;;;
2024/03/02 21:22:21;;;;;;;39.8;26;;;;;;;7.29;86.81;98088.333333333;;;;
2024/03/02 21:32:19;;;;;;;39.8;26;;;;;;;7.24;86.92;98096.666666667;;;;
2024/03/02 21:43:18;;;;;;;34.8;21.8;;;;;;;7.21;87.36;98098.333333333;;;;
2024/03/02 21:53:18;;;;;;;34.8;21.8;;;;;;;7.23;87.48;98105;;;;
2024/03/02 22:03:18;;;;;;;34.8;21.8;;;;;;;7.18;87.8;98105;;;;
2024/03/02 22:14:18;;;;;;;34.3;19.5;;;;;;;7.17;87.34;98101.666666667;;;;
2024/03/02 22:24:19;;;;;;;34.3;19.5;;;;;;;7.13;86.81;98105;;;;
2024/03/02 22:35:18;;;;;;;33.3;21.8;;;;;;;6.85;88.29;98103.333333333;;;;
2024/03/02 22:46:18;;;;;;;33.3;21.8;;;;;;;7.02;88.24;98101.666666667;;;;
2024/03/02 22:57:18;;;;;;;33.3;21.8;;;;;;;7.02;88;98100;;;;
2024/03/02 23:08:18;;;;;;;41.4;26.1;;;;;;;6.82;88.1;98096.666666667;;;;
2024/03/02 23:18:18;;;;;;;41.4;26.1;;;;;;;7.13;88.5;98096.666666667;;;;
2024/03/02 23:29:19;;;;;;;41.4;26.1;;;;;;;7.19;88.54;98098.333333333;;;;
2024/03/02 23:40:41;;;;;;;40.1;25.1;;;;;;;7.2;88;98103.333333333;;;;
2024/03/02 23:50:18;;;;;;;40.1;25.1;;;;;;;7.27;88.1;98103.333333333;;;;
